Time;durP1;ratioP1;P1;durP2;ratioP2;P2;SDS_P1;SDS_P2;PMS_P1;PMS_P2;Temp;Humidity;BMP_temperature;BMP_pressure;BME280_temperature;BME280_humidity;BME280_pressure;Samples;Min_cycle;Max_cycle;Signal;HPM_P1;HPM_P2
2023/08/15 00:00:11;;;;;;;19.27;8.85;;;;;;;;;;4950396;28;20129;-58
2023/08/15 00:02:37;;;;;;;17.95;8.00;;;;;;;;;;4951057;28;20122;-58
2023/08/15 00:05:03;;;;;;;17.92;9.20;;;;;;;;;;4950816;28;20110;-58
2023/08/15 00:07:29;;;;;;;17.00;8.43;;;;;;;;;;4935462;28;20036;-58
2023/08/15 00:09:55;;;;;;;19.30;8.45;;;;;;;;;;4931889;28;20082;-58
2023/08/15 00:12:20;;;;;;;18.10;8.77;;;;;;;;;;4931828;29;20111;-58
2023/08/15 00:14:47;;;;;;;18.02;8.93;;;;;;;;;;4931484;28;20024;-58
2023/08/15 00:17:13;;;;;;;19.65;8.48;;;;;;;;;;4932096;29;20415;-57
2023/08/15 00:19:39;;;;;;;17.23;7.90;;;;;;;;;;4931944;28;20457;-56
2023/08/15 00:22:05;;;;;;;17.65;8.23;;;;;;;;;;4931483;28;20432;-53
2023/08/15 00:24:31;;;;;;;17.60;8.20;;;;;;;;;;4931684;29;20035;-58
2023/08/15 00:26:57;;;;;;;18.20;8.25;;;;;;;;;;4931871;28;20024;-57
2023/08/15 00:29:23;;;;;;;16.65;8.43;;;;;;;;;;4931678;28;20148;-58
2023/08/15 00:31:49;;;;;;;19.33;9.07;;;;;;;;;;4931693;29;20036;-57
2023/08/15 00:34:15;;;;;;;17.30;8.55;;;;;;;;;;4931693;28;20444;-58
2023/08/15 00:36:41;;;;;;;17.63;8.38;;;;;;;;;;4931780;29;20047;-58
2023/08/15 00:39:06;;;;;;;18.90;9.13;;;;;;;;;;4931446;29;20028;-58
2023/08/15 00:41:33;;;;;;;16.95;7.90;;;;;;;;;;4930163;28;20035;-58
2023/08/15 00:43:59;;;;;;;17.70;8.40;;;;;;;;;;4931138;29;20071;-57
2023/08/15 00:46:29;;;;;;;16.70;8.77;;;;;;;;;;4931486;28;20039;-58
2023/08/15 00:48:55;;;;;;;17.75;9.43;;;;;;;;;;4931443;28;20031;-58
2023/08/15 00:51:21;;;;;;;18.40;8.98;;;;;;;;;;4931245;28;20036;-58
2023/08/15 00:53:48;;;;;;;16.58;8.60;;;;;;;;;;4946007;28;20034;-59
2023/08/15 00:56:14;;;;;;;17.60;8.68;;;;;;;;;;4950278;28;20047;-58
2023/08/15 00:58:42;;;;;;;17.13;8.80;;;;;;;;;;4950900;28;20126;-58
2023/08/15 01:01:09;;;;;;;16.60;8.48;;;;;;;;;;4951215;28;20027;-54
2023/08/15 01:03:36;;;;;;;18.33;9.20;;;;;;;;;;4950453;28;20031;-56
2023/08/15 01:06:02;;;;;;;17.42;8.70;;;;;;;;;;4948792;29;20078;-58
2023/08/15 01:08:28;;;;;;;17.42;8.57;;;;;;;;;;4949009;28;20035;-56
2023/08/15 01:10:54;;;;;;;19.17;8.90;;;;;;;;;;4951111;28;20095;-57
2023/08/15 01:13:28;;;;;;;19.17;9.20;;;;;;;;;;4953967;28;20101;-58
2023/08/15 01:15:54;;;;;;;17.70;9.57;;;;;;;;;;4953429;28;20073;-58
2023/08/15 01:18:38;;;;;;;18.73;10.18;;;;;;;;;;4952283;28;20027;-58
2023/08/15 01:21:04;;;;;;;17.90;9.73;;;;;;;;;;4945377;28;20110;-56
2023/08/15 01:23:39;;;;;;;22.67;10.40;;;;;;;;;;4934139;28;20110;-58
2023/08/15 01:26:05;;;;;;;18.92;9.50;;;;;;;;;;4934207;28;20519;-59
2023/08/15 01:28:32;;;;;;;19.05;9.70;;;;;;;;;;4934050;29;20064;-59
2023/08/15 01:31:13;;;;;;;19.17;10.35;;;;;;;;;;4934133;28;20032;-59
2023/08/15 01:33:50;;;;;;;18.02;9.05;;;;;;;;;;4933103;28;20122;-59
2023/08/15 01:36:19;;;;;;;18.67;9.73;;;;;;;;;;4934125;29;20028;-59
2023/08/15 01:38:48;;;;;;;19.83;9.55;;;;;;;;;;4934116;29;20094;-59
2023/08/15 01:41:19;;;;;;;19.77;9.70;;;;;;;;;;4933969;29;20064;-59
2023/08/15 01:43:45;;;;;;;18.17;9.45;;;;;;;;;;4933941;29;20550;-59
2023/08/15 01:46:12;;;;;;;22.95;9.80;;;;;;;;;;4933725;28;20032;-59
2023/08/15 01:48:39;;;;;;;17.23;8.52;;;;;;;;;;4932575;28;20439;-59
2023/08/15 01:51:05;;;;;;;20.10;9.80;;;;;;;;;;4934711;28;20397;-59
2023/08/15 01:53:31;;;;;;;19.63;9.00;;;;;;;;;;4933763;29;20620;-59
2023/08/15 01:55:57;;;;;;;19.40;9.48;;;;;;;;;;4933986;29;20032;-59
2023/08/15 01:58:23;;;;;;;20.73;9.68;;;;;;;;;;4933757;29;20519;-59
2023/08/15 02:00:49;;;;;;;19.92;9.90;;;;;;;;;;4934203;29;20031;-59
2023/08/15 02:03:15;;;;;;;21.92;9.63;;;;;;;;;;4933722;28;20039;-57
2023/08/15 02:05:41;;;;;;;20.05;9.60;;;;;;;;;;4933683;29;20062;-59
2023/08/15 02:08:07;;;;;;;20.08;10.55;;;;;;;;;;4934002;29;20064;-59
2023/08/15 02:10:33;;;;;;;22.77;9.70;;;;;;;;;;4933598;28;20051;-57
2023/08/15 02:12:59;;;;;;;19.85;9.50;;;;;;;;;;4934603;28;20090;-58
2023/08/15 02:15:25;;;;;;;20.00;9.65;;;;;;;;;;4933282;29;20031;-58
2023/08/15 02:17:51;;;;;;;21.80;10.73;;;;;;;;;;4933710;29;20027;-59
2023/08/15 02:20:17;;;;;;;20.17;9.50;;;;;;;;;;4938711;28;20107;-59
2023/08/15 02:22:43;;;;;;;22.98;10.48;;;;;;;;;;4950528;28;20027;-58
2023/08/15 02:25:09;;;;;;;18.13;9.43;;;;;;;;;;4950015;28;20047;-59
2023/08/15 02:27:35;;;;;;;19.83;10.38;;;;;;;;;;4952431;28;20077;-59
2023/08/15 02:30:01;;;;;;;21.33;10.27;;;;;;;;;;4952488;28;20023;-57
2023/08/15 02:32:27;;;;;;;19.27;10.27;;;;;;;;;;4970568;28;20096;-58
2023/08/15 02:34:53;;;;;;;19.20;10.50;;;;;;;;;;5053234;28;20409;-57
2023/08/15 02:37:19;;;;;;;20.38;9.93;;;;;;;;;;5051959;28;20013;-59
2023/08/15 02:39:45;;;;;;;22.25;10.68;;;;;;;;;;5053226;28;20025;-59
2023/08/15 02:42:11;;;;;;;19.63;9.98;;;;;;;;;;5053079;28;20452;-59
2023/08/15 02:44:37;;;;;;;18.75;9.93;;;;;;;;;;5052839;28;20036;-59
2023/08/15 02:47:03;;;;;;;19.27;10.15;;;;;;;;;;5053097;28;20037;-59
2023/08/15 02:49:29;;;;;;;18.85;9.77;;;;;;;;;;5052996;28;20096;-59
2023/08/15 02:51:55;;;;;;;20.23;11.05;;;;;;;;;;4976606;28;20058;-59
2023/08/15 02:54:21;;;;;;;21.80;11.20;;;;;;;;;;4933042;29;20031;-59
2023/08/15 02:56:47;;;;;;;21.58;10.35;;;;;;;;;;4933053;28;20023;-59
2023/08/15 02:59:13;;;;;;;19.77;10.63;;;;;;;;;;4932960;28;20107;-59
2023/08/15 03:01:39;;;;;;;19.65;10.65;;;;;;;;;;4932875;28;20032;-59
2023/08/15 03:04:09;;;;;;;18.95;10.35;;;;;;;;;;4932821;28;20050;-59
2023/08/15 03:06:35;;;;;;;21.23;10.68;;;;;;;;;;4932803;28;20031;-59
2023/08/15 03:09:01;;;;;;;19.00;10.43;;;;;;;;;;4932841;28;20028;-58
2023/08/15 03:11:28;;;;;;;20.45;10.68;;;;;;;;;;4932615;28;20039;-59
2023/08/15 03:13:54;;;;;;;20.02;9.85;;;;;;;;;;4932864;28;20023;-59
2023/08/15 03:16:21;;;;;;;19.73;10.30;;;;;;;;;;4932632;28;20024;-59
2023/08/15 03:18:47;;;;;;;18.90;10.27;;;;;;;;;;4932726;28;20066;-59
2023/08/15 03:21:13;;;;;;;21.75;11.15;;;;;;;;;;4936811;28;20054;-59
2023/08/15 03:23:39;;;;;;;21.65;11.10;;;;;;;;;;4951050;28;20062;-59
2023/08/15 03:26:05;;;;;;;20.05;9.80;;;;;;;;;;4950484;28;20034;-56
2023/08/15 03:28:32;;;;;;;21.52;10.10;;;;;;;;;;4951478;28;20468;-57
2023/08/15 03:31:03;;;;;;;18.73;9.82;;;;;;;;;;4951475;28;20130;-59
2023/08/15 03:33:29;;;;;;;20.13;9.32;;;;;;;;;;4951440;29;20427;-58
2023/08/15 03:35:55;;;;;;;19.95;10.10;;;;;;;;;;4948784;29;20020;-60
2023/08/15 03:38:21;;;;;;;17.98;9.98;;;;;;;;;;4937570;28;20028;-58
2023/08/15 03:40:49;;;;;;;19.08;10.18;;;;;;;;;;4931506;29;20036;-59
2023/08/15 03:43:15;;;;;;;19.10;10.23;;;;;;;;;;4932119;28;20404;-58
2023/08/15 03:45:41;;;;;;;18.45;10.05;;;;;;;;;;4930169;28;20271;-58
2023/08/15 03:48:08;;;;;;;19.50;9.85;;;;;;;;;;4931777;28;20020;-57
2023/08/15 03:50:35;;;;;;;19.95;10.00;;;;;;;;;;4932411;28;20476;-56
2023/08/15 03:53:01;;;;;;;18.42;9.60;;;;;;;;;;4930519;28;20438;-58
2023/08/15 03:55:28;;;;;;;19.13;10.02;;;;;;;;;;4931549;29;20102;-58
2023/08/15 03:57:54;;;;;;;19.10;10.68;;;;;;;;;;4931912;28;20035;-58
2023/08/15 04:00:20;;;;;;;20.92;11.20;;;;;;;;;;4931967;28;20165;-56
2023/08/15 04:02:46;;;;;;;18.20;9.77;;;;;;;;;;4930756;28;20455;-54
2023/08/15 04:05:13;;;;;;;17.15;9.45;;;;;;;;;;4932471;28;20115;-56
2023/08/15 04:07:39;;;;;;;19.48;10.23;;;;;;;;;;4931505;29;20031;-58
2023/08/15 04:10:05;;;;;;;18.65;10.35;;;;;;;;;;4931286;28;20059;-55
2023/08/15 04:12:33;;;;;;;18.30;9.50;;;;;;;;;;4931513;28;20085;-58
2023/08/15 04:14:59;;;;;;;18.25;9.90;;;;;;;;;;4931410;28;20028;-58
2023/08/15 04:17:25;;;;;;;18.70;10.23;;;;;;;;;;4931599;28;20036;-58
2023/08/15 04:19:51;;;;;;;18.30;9.82;;;;;;;;;;4932827;28;20103;-58
2023/08/15 04:22:17;;;;;;;20.85;10.43;;;;;;;;;;4931408;29;20032;-58
2023/08/15 04:24:43;;;;;;;21.42;10.75;;;;;;;;;;4931405;28;20039;-58
2023/08/15 04:27:09;;;;;;;23.02;10.82;;;;;;;;;;4931735;28;20469;-58
2023/08/15 04:29:35;;;;;;;20.40;11.13;;;;;;;;;;4930053;28;20089;-58
2023/08/15 04:32:01;;;;;;;19.38;10.80;;;;;;;;;;4930209;28;20054;-59
2023/08/15 04:34:27;;;;;;;19.85;9.52;;;;;;;;;;4939877;28;20058;-59
2023/08/15 04:36:53;;;;;;;18.40;9.38;;;;;;;;;;4950431;28;20058;-59
2023/08/15 04:39:19;;;;;;;18.75;10.20;;;;;;;;;;4950346;28;20042;-59
2023/08/15 04:41:45;;;;;;;20.83;10.32;;;;;;;;;;4950175;28;20114;-59
2023/08/15 04:44:11;;;;;;;19.38;10.20;;;;;;;;;;4950137;29;20526;-60
2023/08/15 04:46:37;;;;;;;18.98;10.23;;;;;;;;;;4951949;28;20046;-59
2023/08/15 04:49:03;;;;;;;20.80;10.15;;;;;;;;;;4953489;28;20031;-59
2023/08/15 04:51:29;;;;;;;20.25;11.43;;;;;;;;;;4953458;28;20032;-59
2023/08/15 04:53:55;;;;;;;23.75;15.02;;;;;;;;;;4950604;28;20126;-59
2023/08/15 04:56:21;;;;;;;22.33;16.55;;;;;;;;;;4953574;28;20034;-57
2023/08/15 04:58:47;;;;;;;23.95;19.75;;;;;;;;;;4951974;28;20034;-58
2023/08/15 05:01:13;;;;;;;23.42;19.77;;;;;;;;;;4953150;28;20027;-59
2023/08/15 05:03:39;;;;;;;26.80;24.10;;;;;;;;;;4953876;28;20034;-58
2023/08/15 05:06:05;;;;;;;25.27;22.80;;;;;;;;;;4953344;28;20411;-58
2023/08/15 05:08:31;;;;;;;24.55;21.95;;;;;;;;;;4933711;28;20089;-58
2023/08/15 05:10:58;;;;;;;29.02;26.08;;;;;;;;;;4934238;28;20020;-60
2023/08/15 05:13:24;;;;;;;29.25;26.35;;;;;;;;;;4934091;29;20024;-58
2023/08/15 05:15:50;;;;;;;31.88;28.88;;;;;;;;;;4932129;28;20028;-58
2023/08/15 05:18:17;;;;;;;34.35;31.02;;;;;;;;;;4934209;28;20062;-59
2023/08/15 05:20:43;;;;;;;34.20;30.35;;;;;;;;;;4933789;28;20475;-56
2023/08/15 05:23:09;;;;;;;33.28;29.95;;;;;;;;;;4934049;28;20047;-56
2023/08/15 05:25:35;;;;;;;37.45;32.92;;;;;;;;;;4933864;28;20031;-59
2023/08/15 05:28:05;;;;;;;34.60;31.30;;;;;;;;;;4933758;28;20028;-55
2023/08/15 05:30:33;;;;;;;33.97;30.55;;;;;;;;;;4934251;28;20047;-56
2023/08/15 05:33:00;;;;;;;35.30;31.98;;;;;;;;;;4933312;28;20064;-57
2023/08/15 05:35:26;;;;;;;36.00;32.60;;;;;;;;;;4933194;28;20473;-59
2023/08/15 05:37:53;;;;;;;35.70;32.38;;;;;;;;;;4933482;28;20034;-57
2023/08/15 05:40:19;;;;;;;35.45;31.70;;;;;;;;;;4933105;29;20032;-58
2023/08/15 05:42:45;;;;;;;34.90;31.70;;;;;;;;;;4933735;28;20027;-55
2023/08/15 05:45:11;;;;;;;35.35;31.63;;;;;;;;;;4933209;28;20435;-56
2023/08/15 05:47:37;;;;;;;34.30;31.00;;;;;;;;;;4933330;28;20372;-58
2023/08/15 05:50:03;;;;;;;35.10;31.45;;;;;;;;;;4935599;28;20122;-56
2023/08/15 05:52:29;;;;;;;33.10;30.00;;;;;;;;;;4953725;28;20042;-57
2023/08/15 05:54:55;;;;;;;33.13;29.85;;;;;;;;;;4952226;28;20039;-57
2023/08/15 05:57:22;;;;;;;32.72;29.52;;;;;;;;;;4952505;28;20494;-58
2023/08/15 05:59:48;;;;;;;32.72;29.65;;;;;;;;;;4953211;28;20108;-58
2023/08/15 06:02:14;;;;;;;32.85;29.70;;;;;;;;;;4952523;29;20027;-59
2023/08/15 06:04:40;;;;;;;32.35;28.80;;;;;;;;;;4952109;28;20154;-59
2023/08/15 06:07:06;;;;;;;32.75;29.27;;;;;;;;;;4952326;28;20468;-57
2023/08/15 06:09:32;;;;;;;30.63;27.48;;;;;;;;;;4952095;28;20027;-58
2023/08/15 06:11:58;;;;;;;30.30;27.08;;;;;;;;;;4950623;28;20023;-58
2023/08/15 06:14:24;;;;;;;31.30;28.08;;;;;;;;;;4964517;28;20035;-60
2023/08/15 06:16:51;;;;;;;32.17;28.80;;;;;;;;;;4941013;28;20038;-58
2023/08/15 06:19:17;;;;;;;31.20;27.90;;;;;;;;;;4939592;28;20050;-56
2023/08/15 06:21:43;;;;;;;31.20;28.10;;;;;;;;;;4933162;28;20451;-58
2023/08/15 06:24:10;;;;;;;30.35;27.35;;;;;;;;;;4931341;28;20407;-59
2023/08/15 06:26:36;;;;;;;29.77;26.98;;;;;;;;;;4958354;28;20455;-59
2023/08/15 06:29:02;;;;;;;28.85;26.15;;;;;;;;;;4971026;28;20027;-55
2023/08/15 06:31:28;;;;;;;29.92;26.85;;;;;;;;;;4970615;28;20033;-57
2023/08/15 06:33:54;;;;;;;29.00;25.95;;;;;;;;;;4969859;28;20113;-59
2023/08/15 06:36:20;;;;;;;26.77;24.05;;;;;;;;;;4970912;28;20451;-59
2023/08/15 06:38:46;;;;;;;28.67;24.33;;;;;;;;;;4971169;28;20027;-59
2023/08/15 06:41:12;;;;;;;26.38;23.60;;;;;;;;;;4968596;28;20411;-59
2023/08/15 06:43:38;;;;;;;25.23;22.63;;;;;;;;;;4953554;28;20032;-58
2023/08/15 06:46:04;;;;;;;27.10;24.20;;;;;;;;;;4942545;28;20047;-60
2023/08/15 06:48:30;;;;;;;26.75;23.83;;;;;;;;;;4950993;29;20063;-58
2023/08/15 06:50:56;;;;;;;26.40;23.58;;;;;;;;;;4950839;28;20038;-60
2023/08/15 06:53:23;;;;;;;26.85;23.95;;;;;;;;;;4951128;28;20031;-59
2023/08/15 06:55:49;;;;;;;28.52;24.45;;;;;;;;;;4951294;28;20067;-61
2023/08/15 06:58:15;;;;;;;27.38;24.00;;;;;;;;;;4949627;28;20114;-59
2023/08/15 07:00:42;;;;;;;26.33;23.63;;;;;;;;;;4932505;28;20062;-59
2023/08/15 07:03:08;;;;;;;27.00;24.40;;;;;;;;;;4932133;28;20024;-59
2023/08/15 07:05:35;;;;;;;26.67;22.92;;;;;;;;;;4931877;28;20028;-59
2023/08/15 07:08:03;;;;;;;27.45;24.60;;;;;;;;;;4932459;28;20460;-58
2023/08/15 07:10:29;;;;;;;27.13;24.27;;;;;;;;;;4931008;28;20047;-59
2023/08/15 07:12:55;;;;;;;28.48;24.63;;;;;;;;;;4932189;28;20034;-56
2023/08/15 07:15:21;;;;;;;27.70;24.73;;;;;;;;;;4945371;28;20031;-58
2023/08/15 07:17:47;;;;;;;26.90;24.20;;;;;;;;;;4932366;28;20020;-56
2023/08/15 07:20:15;;;;;;;27.48;24.23;;;;;;;;;;4932614;28;20650;-56
2023/08/15 07:22:42;;;;;;;27.48;24.40;;;;;;;;;;4932055;29;20077;-57
2023/08/15 07:25:08;;;;;;;28.20;25.20;;;;;;;;;;4931995;28;20024;-57
2023/08/15 07:27:34;;;;;;;28.95;26.08;;;;;;;;;;4932198;28;20028;-55
2023/08/15 07:30:00;;;;;;;28.63;25.65;;;;;;;;;;4932350;28;20473;-54
2023/08/15 07:32:29;;;;;;;27.58;24.25;;;;;;;;;;4932110;28;20429;-55
2023/08/15 07:34:55;;;;;;;27.13;24.27;;;;;;;;;;4932312;28;20024;-55
2023/08/15 07:37:21;;;;;;;28.20;25.25;;;;;;;;;;4932106;28;20498;-54
2023/08/15 07:39:56;;;;;;;26.85;22.60;;;;;;;;;;4932102;28;20113;-55
2023/08/15 07:42:22;;;;;;;25.25;20.05;;;;;;;;;;4931910;28;20028;-64
2023/08/15 07:44:47;;;;;;;27.05;21.10;;;;;;;;;;4949535;28;20081;-65
2023/08/15 07:47:13;;;;;;;27.52;21.10;;;;;;;;;;4961149;28;20118;-64
2023/08/15 07:49:39;;;;;;;27.73;18.95;;;;;;;;;;4952481;28;20386;-65
2023/08/15 07:52:06;;;;;;;26.10;17.98;;;;;;;;;;4949633;28;20031;-64
2023/08/15 07:54:32;;;;;;;26.52;16.70;;;;;;;;;;4950506;28;20317;-63
2023/08/15 07:56:57;;;;;;;25.75;15.90;;;;;;;;;;4950720;28;20073;-66
2023/08/15 07:59:23;;;;;;;21.92;13.57;;;;;;;;;;4951221;28;20027;-66
2023/08/15 08:01:49;;;;;;;27.40;16.83;;;;;;;;;;4936783;29;20027;-65
2023/08/15 08:04:19;;;;;;;24.75;14.98;;;;;;;;;;4931534;28;20054;-64
2023/08/15 08:06:48;;;;;;;25.60;15.93;;;;;;;;;;4930372;28;20503;-65
2023/08/15 08:09:14;;;;;;;21.08;14.02;;;;;;;;;;4932156;28;20446;-65
2023/08/15 08:11:40;;;;;;;22.27;13.32;;;;;;;;;;4930325;28;20024;-64
2023/08/15 08:14:06;;;;;;;23.80;13.40;;;;;;;;;;4930168;28;20485;-64
2023/08/15 08:16:32;;;;;;;20.65;11.20;;;;;;;;;;4933803;28;20028;-65
2023/08/15 08:18:58;;;;;;;21.35;11.73;;;;;;;;;;4950213;28;20038;-65
2023/08/15 08:21:24;;;;;;;19.67;11.25;;;;;;;;;;4949753;28;20110;-65
2023/08/15 08:23:50;;;;;;;20.98;10.80;;;;;;;;;;4950567;28;20031;-56
2023/08/15 08:26:16;;;;;;;20.85;11.43;;;;;;;;;;4950479;28;20101;-56
2023/08/15 08:28:42;;;;;;;18.63;10.55;;;;;;;;;;4945933;28;20115;-57
2023/08/15 08:31:08;;;;;;;17.80;10.45;;;;;;;;;;4950224;28;20483;-59
2023/08/15 08:33:34;;;;;;;17.48;10.00;;;;;;;;;;4950212;28;20520;-58
2023/08/15 08:36:00;;;;;;;19.15;10.73;;;;;;;;;;4949435;28;20023;-60
2023/08/15 08:38:26;;;;;;;17.85;9.95;;;;;;;;;;4949260;28;20054;-59
2023/08/15 08:40:55;;;;;;;20.35;10.70;;;;;;;;;;4950092;28;20077;-59
2023/08/15 08:43:21;;;;;;;19.63;10.93;;;;;;;;;;4950198;28;20023;-58
2023/08/15 08:45:51;;;;;;;21.13;11.95;;;;;;;;;;4949660;28;20031;-57
2023/08/15 08:48:18;;;;;;;18.17;10.73;;;;;;;;;;4950044;28;20027;-56
2023/08/15 08:50:47;;;;;;;18.58;10.90;;;;;;;;;;4949935;28;20046;-57
2023/08/15 08:53:14;;;;;;;18.70;10.63;;;;;;;;;;4950018;28;20108;-55
2023/08/15 08:55:40;;;;;;;18.45;9.80;;;;;;;;;;4949896;28;20027;-55
2023/08/15 08:58:09;;;;;;;18.80;10.80;;;;;;;;;;4950103;28;20026;-59
2023/08/15 09:00:36;;;;;;;17.58;10.05;;;;;;;;;;4947897;28;20032;-56
2023/08/15 09:03:02;;;;;;;17.58;10.00;;;;;;;;;;4950565;28;20157;-57
2023/08/15 09:05:28;;;;;;;18.08;9.32;;;;;;;;;;4957436;28;20031;-59
2023/08/15 09:07:54;;;;;;;16.40;8.82;;;;;;;;;;4952675;28;20038;-52
2023/08/15 09:10:23;;;;;;;20.23;9.73;;;;;;;;;;4950069;28;20037;-59
2023/08/15 09:12:49;;;;;;;15.27;8.40;;;;;;;;;;4950215;28;20023;-54
2023/08/15 09:15:15;;;;;;;17.42;8.95;;;;;;;;;;4949887;28;20499;-58
2023/08/15 09:17:41;;;;;;;17.63;9.25;;;;;;;;;;4950149;28;20031;-58
2023/08/15 09:20:18;;;;;;;16.90;9.73;;;;;;;;;;4950271;28;20046;-57
2023/08/15 09:22:47;;;;;;;18.45;10.10;;;;;;;;;;4948621;28;20035;-59
2023/08/15 09:25:20;;;;;;;16.10;9.40;;;;;;;;;;4949679;28;20122;-58
2023/08/15 09:27:47;;;;;;;19.33;10.20;;;;;;;;;;4944917;28;20403;-55
2023/08/15 09:30:19;;;;;;;17.70;9.38;;;;;;;;;;4930766;28;20064;-55
2023/08/15 09:32:46;;;;;;;19.73;10.00;;;;;;;;;;4931139;29;20034;-58
2023/08/15 09:35:13;;;;;;;17.70;9.75;;;;;;;;;;4934160;28;20049;-59
2023/08/15 09:37:42;;;;;;;18.92;10.38;;;;;;;;;;4934310;28;20034;-55
2023/08/15 09:40:11;;;;;;;18.83;10.07;;;;;;;;;;4934278;28;20063;-55
2023/08/15 09:42:37;;;;;;;18.95;10.70;;;;;;;;;;4933704;28;20086;-50
2023/08/15 09:45:03;;;;;;;16.63;9.88;;;;;;;;;;4947952;28;20383;-53
2023/08/15 09:47:29;;;;;;;19.60;10.35;;;;;;;;;;4953156;28;20450;-57
2023/08/15 09:49:55;;;;;;;18.63;9.70;;;;;;;;;;4952758;28;20118;-55
2023/08/15 09:52:21;;;;;;;17.42;10.57;;;;;;;;;;4952860;28;20486;-57
2023/08/15 09:54:47;;;;;;;18.65;10.27;;;;;;;;;;4952400;28;20038;-57
2023/08/15 09:57:13;;;;;;;17.35;10.30;;;;;;;;;;4935760;29;20036;-58
2023/08/15 09:59:39;;;;;;;15.82;10.07;;;;;;;;;;4933894;28;20031;-56
2023/08/15 10:02:10;;;;;;;18.95;10.30;;;;;;;;;;4933601;28;20477;-60
2023/08/15 10:04:36;;;;;;;18.13;10.88;;;;;;;;;;4937024;28;20035;-59
2023/08/15 10:07:02;;;;;;;20.42;10.20;;;;;;;;;;4952492;28;20499;-59
2023/08/15 10:09:32;;;;;;;16.55;10.00;;;;;;;;;;4951019;28;20399;-60
2023/08/15 10:11:59;;;;;;;15.98;9.98;;;;;;;;;;4952283;28;20030;-56
2023/08/15 10:14:25;;;;;;;16.27;9.93;;;;;;;;;;4950723;28;20034;-57
2023/08/15 10:16:52;;;;;;;16.95;10.70;;;;;;;;;;4952442;28;20051;-55
2023/08/15 10:19:18;;;;;;;17.13;10.70;;;;;;;;;;4952373;28;20530;-57
2023/08/15 10:21:50;;;;;;;17.80;9.77;;;;;;;;;;4951922;28;20081;-57
2023/08/15 10:24:17;;;;;;;19.00;9.93;;;;;;;;;;4951828;28;20058;-60
2023/08/15 10:26:43;;;;;;;15.35;9.20;;;;;;;;;;4957012;28;20034;-60
2023/08/15 10:29:09;;;;;;;15.07;9.15;;;;;;;;;;4954527;28;20118;-57
2023/08/15 10:31:36;;;;;;;16.27;9.32;;;;;;;;;;4951835;28;20073;-57
2023/08/15 10:34:08;;;;;;;19.48;10.15;;;;;;;;;;4951724;28;20033;-60
2023/08/15 10:36:34;;;;;;;15.68;9.57;;;;;;;;;;4951940;28;20035;-57
2023/08/15 10:39:05;;;;;;;16.17;9.85;;;;;;;;;;4952078;28;20027;-59
2023/08/15 10:41:32;;;;;;;16.05;9.68;;;;;;;;;;4951623;28;20038;-56
2023/08/15 10:44:02;;;;;;;17.27;9.80;;;;;;;;;;4950661;28;20416;-57
2023/08/15 10:46:30;;;;;;;16.80;10.40;;;;;;;;;;4950185;28;20032;-57
2023/08/15 10:49:01;;;;;;;14.35;8.85;;;;;;;;;;4951271;28;20067;-56
2023/08/15 10:51:27;;;;;;;15.50;9.13;;;;;;;;;;4951204;28;20039;-57
2023/08/15 10:53:54;;;;;;;19.10;9.68;;;;;;;;;;4949918;28;20100;-57
2023/08/15 10:56:22;;;;;;;18.27;10.13;;;;;;;;;;4949249;28;20098;-58
2023/08/15 10:58:49;;;;;;;15.00;10.00;;;;;;;;;;4951166;29;20040;-59
2023/08/15 11:01:22;;;;;;;17.05;10.27;;;;;;;;;;4951377;28;20118;-58
2023/08/15 11:03:49;;;;;;;15.77;9.40;;;;;;;;;;4950247;28;20027;-58
2023/08/15 11:06:16;;;;;;;15.07;10.00;;;;;;;;;;4951384;28;20051;-57
2023/08/15 11:08:49;;;;;;;16.02;9.60;;;;;;;;;;4951527;28;20499;-57
2023/08/15 11:11:16;;;;;;;15.70;9.60;;;;;;;;;;4950976;28;20302;-57
2023/08/15 11:13:46;;;;;;;15.80;9.77;;;;;;;;;;4951223;28;20019;-56
2023/08/15 11:16:14;;;;;;;15.38;9.85;;;;;;;;;;4950796;28;20046;-59
2023/08/15 11:18:41;;;;;;;15.88;10.02;;;;;;;;;;4951556;28;20479;-56
2023/08/15 11:21:08;;;;;;;16.43;10.03;;;;;;;;;;4950661;28;20106;-56
2023/08/15 11:23:34;;;;;;;15.13;9.48;;;;;;;;;;4951235;28;20539;-56
2023/08/15 11:26:01;;;;;;;16.10;10.30;;;;;;;;;;4951053;28;20437;-60
2023/08/15 11:28:27;;;;;;;15.13;10.10;;;;;;;;;;4939464;28;20455;-58
2023/08/15 11:30:53;;;;;;;16.60;10.20;;;;;;;;;;4930515;28;20040;-57
2023/08/15 11:33:19;;;;;;;15.50;10.27;;;;;;;;;;4931881;28;20502;-59
2023/08/15 11:35:48;;;;;;;15.68;10.02;;;;;;;;;;4931628;28;20028;-59
2023/08/15 11:38:17;;;;;;;15.07;9.80;;;;;;;;;;4932184;28;20036;-60
2023/08/15 11:40:43;;;;;;;15.88;10.02;;;;;;;;;;4934716;29;20047;-57
2023/08/15 11:43:09;;;;;;;16.25;10.35;;;;;;;;;;4941235;29;20086;-59
2023/08/15 11:45:36;;;;;;;17.15;10.20;;;;;;;;;;4932699;28;20062;-57
2023/08/15 11:48:03;;;;;;;15.65;10.05;;;;;;;;;;4931938;29;20023;-56
2023/08/15 11:50:33;;;;;;;16.07;10.43;;;;;;;;;;4929977;28;20035;-58
2023/08/15 11:52:59;;;;;;;16.10;10.05;;;;;;;;;;4932782;28;20034;-58
2023/08/15 11:55:26;;;;;;;15.75;10.30;;;;;;;;;;4930729;28;20047;-56
2023/08/15 11:57:52;;;;;;;15.55;10.35;;;;;;;;;;4931744;28;20031;-58
2023/08/15 12:00:19;;;;;;;17.50;10.70;;;;;;;;;;4931639;28;20118;-58
2023/08/15 12:02:46;;;;;;;14.70;10.40;;;;;;;;;;4931495;28;20032;-59
2023/08/15 12:05:13;;;;;;;16.75;10.57;;;;;;;;;;4930016;28;20024;-58
2023/08/15 12:07:39;;;;;;;16.30;11.23;;;;;;;;;;4930094;28;20043;-59
2023/08/15 12:10:06;;;;;;;16.70;11.10;;;;;;;;;;4931352;28;20078;-60
2023/08/15 12:12:43;;;;;;;16.10;11.18;;;;;;;;;;4931173;28;20024;-56
2023/08/15 12:15:10;;;;;;;17.58;11.55;;;;;;;;;;4931484;28;20035;-57
2023/08/15 12:17:37;;;;;;;15.87;11.23;;;;;;;;;;4931413;29;20032;-56
2023/08/15 12:20:04;;;;;;;17.02;11.57;;;;;;;;;;4931369;28;20479;-57
2023/08/15 12:22:31;;;;;;;17.33;11.13;;;;;;;;;;4931410;28;20034;-57
2023/08/15 12:24:57;;;;;;;17.30;11.95;;;;;;;;;;4931438;28;20055;-57
2023/08/15 12:27:23;;;;;;;15.60;11.25;;;;;;;;;;4932436;28;20038;-57
2023/08/15 12:29:49;;;;;;;18.27;11.60;;;;;;;;;;4931399;28;20153;-59
2023/08/15 12:32:15;;;;;;;17.02;11.95;;;;;;;;;;4931048;28;20028;-59
2023/08/15 12:34:41;;;;;;;17.27;11.60;;;;;;;;;;4930838;28;20028;-57
2023/08/15 12:37:07;;;;;;;19.27;11.63;;;;;;;;;;4930942;28;20027;-56
2023/08/15 12:39:33;;;;;;;17.92;12.45;;;;;;;;;;4930887;28;20031;-56
2023/08/15 12:41:59;;;;;;;15.88;11.73;;;;;;;;;;4931113;28;20500;-56
2023/08/15 12:44:25;;;;;;;17.45;12.50;;;;;;;;;;4939970;28;20062;-59
2023/08/15 12:46:51;;;;;;;18.70;12.40;;;;;;;;;;4949980;28;20479;-57
2023/08/15 12:49:17;;;;;;;18.65;13.18;;;;;;;;;;4949954;28;20039;-58
2023/08/15 12:51:43;;;;;;;17.95;12.45;;;;;;;;;;4949790;28;20027;-57
2023/08/15 12:54:09;;;;;;;18.50;11.80;;;;;;;;;;4949816;28;20442;-57
2023/08/15 12:56:35;;;;;;;16.27;11.95;;;;;;;;;;4938042;29;20521;-59
2023/08/15 12:59:01;;;;;;;16.60;11.73;;;;;;;;;;4953934;28;20077;-60
2023/08/15 13:01:27;;;;;;;18.23;12.07;;;;;;;;;;4937067;29;20131;-58
2023/08/15 13:03:54;;;;;;;18.08;12.43;;;;;;;;;;4930349;29;20032;-57
2023/08/15 13:06:20;;;;;;;16.50;12.05;;;;;;;;;;4930714;28;20028;-56
2023/08/15 13:08:46;;;;;;;15.90;12.15;;;;;;;;;;4933544;28;20028;-56
2023/08/15 13:11:13;;;;;;;18.17;12.35;;;;;;;;;;4933670;28;20043;-58
2023/08/15 13:13:39;;;;;;;17.60;12.30;;;;;;;;;;4933785;29;20039;-59
2023/08/15 13:16:05;;;;;;;18.70;12.40;;;;;;;;;;4933665;29;20027;-57
2023/08/15 13:18:31;;;;;;;18.65;12.55;;;;;;;;;;4933871;28;20027;-57
2023/08/15 13:20:57;;;;;;;18.33;12.65;;;;;;;;;;4933397;28;20444;-59
2023/08/15 13:23:23;;;;;;;17.30;12.35;;;;;;;;;;4933851;28;20086;-56
2023/08/15 13:25:49;;;;;;;17.17;12.60;;;;;;;;;;4933466;28;20028;-59
2023/08/15 13:28:15;;;;;;;18.98;13.40;;;;;;;;;;4934759;28;20439;-57
2023/08/15 13:30:42;;;;;;;18.05;12.65;;;;;;;;;;4933644;28;20116;-57
2023/08/15 13:33:08;;;;;;;17.70;12.82;;;;;;;;;;4933701;29;20028;-58
2023/08/15 13:35:34;;;;;;;16.90;12.68;;;;;;;;;;4931664;28;20024;-56
2023/08/15 13:38:01;;;;;;;17.55;13.10;;;;;;;;;;4933527;28;20028;-58
2023/08/15 13:40:26;;;;;;;18.75;13.02;;;;;;;;;;4933312;28;20150;-58
2023/08/15 13:42:52;;;;;;;17.90;13.80;;;;;;;;;;4932037;28;20104;-58
2023/08/15 13:45:18;;;;;;;17.77;12.80;;;;;;;;;;4949655;28;20025;-57
2023/08/15 13:47:44;;;;;;;18.80;13.13;;;;;;;;;;4952644;28;20491;-58
2023/08/15 13:50:11;;;;;;;17.35;12.77;;;;;;;;;;4950720;28;20047;-56
2023/08/15 13:52:37;;;;;;;17.33;12.65;;;;;;;;;;4952282;28;20349;-58
2023/08/15 13:55:04;;;;;;;17.77;12.63;;;;;;;;;;4951920;28;20076;-55
2023/08/15 13:57:32;;;;;;;18.52;13.38;;;;;;;;;;4939229;28;20030;-58
2023/08/15 13:59:58;;;;;;;16.88;13.20;;;;;;;;;;4933693;29;20411;-58
2023/08/15 14:02:24;;;;;;;16.80;13.43;;;;;;;;;;4934116;28;20058;-58
2023/08/15 14:04:50;;;;;;;19.88;13.38;;;;;;;;;;4949641;28;20032;-60
2023/08/15 14:07:16;;;;;;;17.48;13.75;;;;;;;;;;4951908;28;20394;-58
2023/08/15 14:09:42;;;;;;;18.35;13.50;;;;;;;;;;4951664;28;20518;-59
2023/08/15 14:12:08;;;;;;;18.05;14.48;;;;;;;;;;4951814;28;20032;-55
2023/08/15 14:14:36;;;;;;;17.83;13.68;;;;;;;;;;4956979;28;20670;-58
2023/08/15 14:17:03;;;;;;;18.42;13.25;;;;;;;;;;4952901;28;20035;-59